sensor_id;sensor_type;location;lat;lon;timestamp;temperature;humidity
51996;DHT22;38010;53.264;6.592;2023-02-03T00:01:02;13.30;99.90
51996;DHT22;38010;53.264;6.592;2023-02-03T00:03:28;13.30;99.90
51996;DHT22;38010;53.264;6.592;2023-02-03T00:05:54;13.30;99.90
51996;DHT22;38010;53.264;6.592;2023-02-03T00:08:20;13.30;99.90
51996;DHT22;38010;53.264;6.592;2023-02-03T00:10:47;13.30;99.90
51996;DHT22;38010;53.264;6.592;2023-02-03T00:13:14;13.30;99.90
51996;DHT22;38010;53.264;6.592;2023-02-03T00:15:40;13.30;99.90
51996;DHT22;38010;53.264;6.592;2023-02-03T00:18:05;13.30;99.90
51996;DHT22;38010;53.264;6.592;2023-02-03T00:20:31;13.30;99.90
51996;DHT22;38010;53.264;6.592;2023-02-03T00:23:08;13.30;99.90
51996;DHT22;38010;53.264;6.592;2023-02-03T00:25:35;13.30;99.90
51996;DHT22;38010;53.264;6.592;2023-02-03T00:28:01;13.30;99.90
51996;DHT22;38010;53.264;6.592;2023-02-03T00:30:27;13.20;99.90
51996;DHT22;38010;53.264;6.592;2023-02-03T00:32:53;13.20;99.90
51996;DHT22;38010;53.264;6.592;2023-02-03T00:35:19;13.20;99.90
51996;DHT22;38010;53.264;6.592;2023-02-03T00:37:50;13.20;99.90
51996;DHT22;38010;53.264;6.592;2023-02-03T00:40:17;13.20;99.90
51996;DHT22;38010;53.264;6.592;2023-02-03T00:42:43;13.20;99.90
51996;DHT22;38010;53.264;6.592;2023-02-03T00:45:09;13.20;99.90
51996;DHT22;38010;53.264;6.592;2023-02-03T00:47:34;13.20;99.90
51996;DHT22;38010;53.264;6.592;2023-02-03T00:50:00;13.20;99.90
51996;DHT22;38010;53.264;6.592;2023-02-03T00:52:26;13.20;99.90
51996;DHT22;38010;53.264;6.592;2023-02-03T00:54:51;13.20;99.90
51996;DHT22;38010;53.264;6.592;2023-02-03T00:57:17;13.20;99.90
51996;DHT22;38010;53.264;6.592;2023-02-03T00:59:43;13.20;99.90
51996;DHT22;38010;53.264;6.592;2023-02-03T01:02:08;13.20;99.90
51996;DHT22;38010;53.264;6.592;2023-02-03T01:04:34;13.20;99.90
51996;DHT22;38010;53.264;6.592;2023-02-03T01:07:00;13.20;99.90
51996;DHT22;38010;53.264;6.592;2023-02-03T01:09:26;13.20;99.90
51996;DHT22;38010;53.264;6.592;2023-02-03T01:11:51;13.20;99.90
51996;DHT22;38010;53.264;6.592;2023-02-03T01:14:17;13.20;99.90
51996;DHT22;38010;53.264;6.592;2023-02-03T01:16:43;13.20;99.90
51996;DHT22;38010;53.264;6.592;2023-02-03T01:19:08;13.20;99.90
51996;DHT22;38010;53.264;6.592;2023-02-03T01:21:34;13.20;99.90
51996;DHT22;38010;53.264;6.592;2023-02-03T01:24:01;13.20;99.90
51996;DHT22;38010;53.264;6.592;2023-02-03T01:26:27;13.20;99.90
51996;DHT22;38010;53.264;6.592;2023-02-03T01:28:54;13.20;99.90
51996;DHT22;38010;53.264;6.592;2023-02-03T01:31:30;13.20;99.90
51996;DHT22;38010;53.264;6.592;2023-02-03T01:33:59;13.20;99.90
51996;DHT22;38010;53.264;6.592;2023-02-03T01:36:27;13.10;99.90
51996;DHT22;38010;53.264;6.592;2023-02-03T01:38:53;13.10;99.90
51996;DHT22;38010;53.264;6.592;2023-02-03T01:41:22;13.10;99.90
51996;DHT22;38010;53.264;6.592;2023-02-03T01:43:50;13.10;99.90
51996;DHT22;38010;53.264;6.592;2023-02-03T01:46:39;13.10;99.90
51996;DHT22;38010;53.264;6.592;2023-02-03T01:49:15;13.10;99.90
51996;DHT22;38010;53.264;6.592;2023-02-03T01:51:43;13.10;99.90
51996;DHT22;38010;53.264;6.592;2023-02-03T01:54:12;13.10;99.90
51996;DHT22;38010;53.264;6.592;2023-02-03T01:56:43;13.10;99.90
51996;DHT22;38010;53.264;6.592;2023-02-03T01:59:10;13.10;99.90
51996;DHT22;38010;53.264;6.592;2023-02-03T02:01:36;13.10;99.90
51996;DHT22;38010;53.264;6.592;2023-02-03T02:04:03;13.10;99.90
51996;DHT22;38010;53.264;6.592;2023-02-03T02:06:29;13.10;99.90
51996;DHT22;38010;53.264;6.592;2023-02-03T02:08:56;13.10;99.90
51996;DHT22;38010;53.264;6.592;2023-02-03T02:11:25;13.10;99.90
51996;DHT22;38010;53.264;6.592;2023-02-03T02:13:54;13.10;99.90
51996;DHT22;38010;53.264;6.592;2023-02-03T02:22:29;13.10;99.90
51996;DHT22;38010;53.264;6.592;2023-02-03T02:25:24;13.10;99.90
51996;DHT22;38010;53.264;6.592;2023-02-03T02:28:15;13.10;99.90
51996;DHT22;38010;53.264;6.592;2023-02-03T02:34:07;13.10;99.90
51996;DHT22;38010;53.264;6.592;2023-02-03T02:36:51;13.10;99.90
51996;DHT22;38010;53.264;6.592;2023-02-03T02:42:38;13.10;99.90
51996;DHT22;38010;53.264;6.592;2023-02-03T02:45:24;13.10;99.90
51996;DHT22;38010;53.264;6.592;2023-02-03T02:47:57;13.00;99.90
51996;DHT22;38010;53.264;6.592;2023-02-03T02:50:26;13.10;99.90
51996;DHT22;38010;53.264;6.592;2023-02-03T02:52:53;13.00;99.90
51996;DHT22;38010;53.264;6.592;2023-02-03T02:55:23;13.00;99.90
51996;DHT22;38010;53.264;6.592;2023-02-03T02:58:00;13.10;99.90
51996;DHT22;38010;53.264;6.592;2023-02-03T03:00:34;13.00;99.90
51996;DHT22;38010;53.264;6.592;2023-02-03T03:05:40;13.00;99.90
51996;DHT22;38010;53.264;6.592;2023-02-03T03:08:08;13.00;99.90
51996;DHT22;38010;53.264;6.592;2023-02-03T03:10:38;13.00;99.90
51996;DHT22;38010;53.264;6.592;2023-02-03T03:13:08;13.00;99.90
51996;DHT22;38010;53.264;6.592;2023-02-03T03:15:36;13.00;99.90
51996;DHT22;38010;53.264;6.592;2023-02-03T03:18:13;13.00;99.90
51996;DHT22;38010;53.264;6.592;2023-02-03T03:20:41;13.00;99.90
51996;DHT22;38010;53.264;6.592;2023-02-03T03:23:38;13.10;99.90
51996;DHT22;38010;53.264;6.592;2023-02-03T03:26:29;13.00;99.90
51996;DHT22;38010;53.264;6.592;2023-02-03T03:29:18;13.00;99.90
51996;DHT22;38010;53.264;6.592;2023-02-03T03:31:46;13.00;99.90
51996;DHT22;38010;53.264;6.592;2023-02-03T03:34:13;13.00;99.90
51996;DHT22;38010;53.264;6.592;2023-02-03T03:39:58;13.00;99.90
51996;DHT22;38010;53.264;6.592;2023-02-03T03:42:39;13.00;99.90
51996;DHT22;38010;53.264;6.592;2023-02-03T03:45:26;13.00;99.90
51996;DHT22;38010;53.264;6.592;2023-02-03T03:47:54;13.00;99.90
51996;DHT22;38010;53.264;6.592;2023-02-03T03:50:24;13.00;99.90
51996;DHT22;38010;53.264;6.592;2023-02-03T03:52:52;13.00;99.90
51996;DHT22;38010;53.264;6.592;2023-02-03T03:55:19;13.00;99.90
51996;DHT22;38010;53.264;6.592;2023-02-03T03:57:54;13.00;99.90
51996;DHT22;38010;53.264;6.592;2023-02-03T04:00:25;13.00;99.90
51996;DHT22;38010;53.264;6.592;2023-02-03T04:02:54;13.00;99.90
51996;DHT22;38010;53.264;6.592;2023-02-03T04:05:21;13.00;99.90
51996;DHT22;38010;53.264;6.592;2023-02-03T04:07:47;13.00;99.90
51996;DHT22;38010;53.264;6.592;2023-02-03T04:10:24;13.00;99.90
51996;DHT22;38010;53.264;6.592;2023-02-03T04:12:51;13.00;99.90
51996;DHT22;38010;53.264;6.592;2023-02-03T04:15:17;13.00;99.90
51996;DHT22;38010;53.264;6.592;2023-02-03T04:17:43;13.00;99.90
51996;DHT22;38010;53.264;6.592;2023-02-03T04:20:09;13.00;99.90
51996;DHT22;38010;53.264;6.592;2023-02-03T04:22:34;13.00;99.90
51996;DHT22;38010;53.264;6.592;2023-02-03T04:25:00;13.00;99.90
51996;DHT22;38010;53.264;6.592;2023-02-03T04:27:26;13.00;99.90
51996;DHT22;38010;53.264;6.592;2023-02-03T04:29:52;13.00;99.90
51996;DHT22;38010;53.264;6.592;2023-02-03T04:32:18;13.00;99.90
51996;DHT22;38010;53.264;6.592;2023-02-03T04:34:44;13.10;99.90
51996;DHT22;38010;53.264;6.592;2023-02-03T04:37:10;13.00;99.90
51996;DHT22;38010;53.264;6.592;2023-02-03T04:39:36;13.10;99.90
51996;DHT22;38010;53.264;6.592;2023-02-03T04:42:01;13.10;99.90
51996;DHT22;38010;53.264;6.592;2023-02-03T04:44:27;13.10;99.90
51996;DHT22;38010;53.264;6.592;2023-02-03T04:46:53;13.10;99.90
51996;DHT22;38010;53.264;6.592;2023-02-03T04:49:19;13.10;99.90
51996;DHT22;38010;53.264;6.592;2023-02-03T04:51:47;13.10;99.90
51996;DHT22;38010;53.264;6.592;2023-02-03T04:54:13;13.10;99.90
51996;DHT22;38010;53.264;6.592;2023-02-03T04:56:39;13.10;99.90
51996;DHT22;38010;53.264;6.592;2023-02-03T04:59:05;13.10;99.90
51996;DHT22;38010;53.264;6.592;2023-02-03T05:01:31;13.20;99.90
51996;DHT22;38010;53.264;6.592;2023-02-03T05:03:57;13.10;99.90
51996;DHT22;38010;53.264;6.592;2023-02-03T05:06:27;13.20;99.90
51996;DHT22;38010;53.264;6.592;2023-02-03T05:08:54;13.20;99.90
51996;DHT22;38010;53.264;6.592;2023-02-03T05:11:21;13.20;99.90
51996;DHT22;38010;53.264;6.592;2023-02-03T05:13:47;13.20;99.90
51996;DHT22;38010;53.264;6.592;2023-02-03T05:16:13;13.20;99.90
51996;DHT22;38010;53.264;6.592;2023-02-03T05:18:39;13.20;99.90
51996;DHT22;38010;53.264;6.592;2023-02-03T05:21:05;13.20;99.90
51996;DHT22;38010;53.264;6.592;2023-02-03T05:23:30;13.10;99.90
51996;DHT22;38010;53.264;6.592;2023-02-03T05:25:56;13.20;99.90
51996;DHT22;38010;53.264;6.592;2023-02-03T05:28:22;13.10;99.90
51996;DHT22;38010;53.264;6.592;2023-02-03T05:30:47;13.10;99.90
51996;DHT22;38010;53.264;6.592;2023-02-03T05:33:13;13.10;99.90
51996;DHT22;38010;53.264;6.592;2023-02-03T05:35:39;13.10;99.90
51996;DHT22;38010;53.264;6.592;2023-02-03T05:38:05;13.10;99.90
51996;DHT22;38010;53.264;6.592;2023-02-03T05:40:31;13.10;99.90
51996;DHT22;38010;53.264;6.592;2023-02-03T05:43:15;13.10;99.90
51996;DHT22;38010;53.264;6.592;2023-02-03T05:45:41;13.10;99.90
51996;DHT22;38010;53.264;6.592;2023-02-03T05:48:07;13.10;99.90
51996;DHT22;38010;53.264;6.592;2023-02-03T05:50:34;13.10;99.90
51996;DHT22;38010;53.264;6.592;2023-02-03T05:53:01;13.10;99.90
51996;DHT22;38010;53.264;6.592;2023-02-03T05:55:27;13.10;99.90
51996;DHT22;38010;53.264;6.592;2023-02-03T05:57:53;13.10;99.90
51996;DHT22;38010;53.264;6.592;2023-02-03T06:00:20;13.20;99.90
51996;DHT22;38010;53.264;6.592;2023-02-03T06:02:57;13.20;99.90
51996;DHT22;38010;53.264;6.592;2023-02-03T06:05:24;13.20;99.90
51996;DHT22;38010;53.264;6.592;2023-02-03T06:07:51;13.20;99.90
51996;DHT22;38010;53.264;6.592;2023-02-03T06:10:17;13.20;99.90
51996;DHT22;38010;53.264;6.592;2023-02-03T06:12:43;13.20;99.90
51996;DHT22;38010;53.264;6.592;2023-02-03T06:15:09;13.20;99.90
51996;DHT22;38010;53.264;6.592;2023-02-03T06:17:35;13.20;99.90
51996;DHT22;38010;53.264;6.592;2023-02-03T06:20:04;13.20;99.90
51996;DHT22;38010;53.264;6.592;2023-02-03T06:22:30;13.10;99.90
51996;DHT22;38010;53.264;6.592;2023-02-03T06:24:56;13.20;99.90
51996;DHT22;38010;53.264;6.592;2023-02-03T06:27:22;13.10;99.90
51996;DHT22;38010;53.264;6.592;2023-02-03T06:29:47;13.20;99.90
51996;DHT22;38010;53.264;6.592;2023-02-03T06:32:13;13.20;99.90
51996;DHT22;38010;53.264;6.592;2023-02-03T06:34:39;13.20;99.90
51996;DHT22;38010;53.264;6.592;2023-02-03T06:37:05;13.20;99.90
51996;DHT22;38010;53.264;6.592;2023-02-03T06:39:30;13.20;99.90
51996;DHT22;38010;53.264;6.592;2023-02-03T06:41:56;13.20;99.90
51996;DHT22;38010;53.264;6.592;2023-02-03T06:44:22;13.20;99.90
51996;DHT22;38010;53.264;6.592;2023-02-03T06:46:48;13.20;99.90
51996;DHT22;38010;53.264;6.592;2023-02-03T06:49:15;13.20;99.90
51996;DHT22;38010;53.264;6.592;2023-02-03T06:51:42;13.20;99.90
51996;DHT22;38010;53.264;6.592;2023-02-03T06:54:10;13.20;99.90
51996;DHT22;38010;53.264;6.592;2023-02-03T06:56:36;13.20;99.90
51996;DHT22;38010;53.264;6.592;2023-02-03T06:59:02;13.20;99.90
51996;DHT22;38010;53.264;6.592;2023-02-03T07:01:27;13.20;99.90
51996;DHT22;38010;53.264;6.592;2023-02-03T07:03:54;13.20;99.90
51996;DHT22;38010;53.264;6.592;2023-02-03T07:06:25;13.20;99.90
51996;DHT22;38010;53.264;6.592;2023-02-03T07:09:02;13.20;99.90
51996;DHT22;38010;53.264;6.592;2023-02-03T07:11:28;13.20;99.90
51996;DHT22;38010;53.264;6.592;2023-02-03T07:13:53;13.20;99.90
51996;DHT22;38010;53.264;6.592;2023-02-03T07:16:19;13.20;99.90
51996;DHT22;38010;53.264;6.592;2023-02-03T07:18:45;13.30;99.90
51996;DHT22;38010;53.264;6.592;2023-02-03T07:21:12;13.30;99.90
51996;DHT22;38010;53.264;6.592;2023-02-03T07:23:38;13.20;99.90
51996;DHT22;38010;53.264;6.592;2023-02-03T07:26:05;13.30;99.90
51996;DHT22;38010;53.264;6.592;2023-02-03T07:28:35;13.30;99.90
51996;DHT22;38010;53.264;6.592;2023-02-03T07:31:01;13.30;99.90
51996;DHT22;38010;53.264;6.592;2023-02-03T07:33:29;13.30;99.90
51996;DHT22;38010;53.264;6.592;2023-02-03T07:35:57;13.30;99.90
51996;DHT22;38010;53.264;6.592;2023-02-03T07:38:24;13.30;99.90
51996;DHT22;38010;53.264;6.592;2023-02-03T07:40:51;13.30;99.90
51996;DHT22;38010;53.264;6.592;2023-02-03T07:43:17;13.30;99.90
51996;DHT22;38010;53.264;6.592;2023-02-03T07:45:43;13.30;99.90
51996;DHT22;38010;53.264;6.592;2023-02-03T07:48:09;13.30;99.90
51996;DHT22;38010;53.264;6.592;2023-02-03T07:50:35;13.40;99.90
51996;DHT22;38010;53.264;6.592;2023-02-03T07:53:01;13.40;99.90
51996;DHT22;38010;53.264;6.592;2023-02-03T07:55:27;13.40;99.90
51996;DHT22;38010;53.264;6.592;2023-02-03T07:57:56;13.40;99.90
51996;DHT22;38010;53.264;6.592;2023-02-03T08:00:23;13.40;99.90
51996;DHT22;38010;53.264;6.592;2023-02-03T08:02:49;13.50;99.90
51996;DHT22;38010;53.264;6.592;2023-02-03T08:05:15;13.50;99.90
51996;DHT22;38010;53.264;6.592;2023-02-03T08:07:41;13.50;99.90
51996;DHT22;38010;53.264;6.592;2023-02-03T08:10:09;13.50;99.90
51996;DHT22;38010;53.264;6.592;2023-02-03T08:12:35;13.50;99.90
51996;DHT22;38010;53.264;6.592;2023-02-03T08:15:01;13.50;99.90
51996;DHT22;38010;53.264;6.592;2023-02-03T08:17:26;13.50;99.90
51996;DHT22;38010;53.264;6.592;2023-02-03T08:19:52;13.50;99.90
51996;DHT22;38010;53.264;6.592;2023-02-03T08:22:18;13.50;99.90
51996;DHT22;38010;53.264;6.592;2023-02-03T08:24:45;13.50;99.90
51996;DHT22;38010;53.264;6.592;2023-02-03T08:27:16;13.50;99.90
51996;DHT22;38010;53.264;6.592;2023-02-03T08:29:42;13.50;99.90
51996;DHT22;38010;53.264;6.592;2023-02-03T08:32:09;13.50;99.90
51996;DHT22;38010;53.264;6.592;2023-02-03T08:34:35;13.50;99.90
51996;DHT22;38010;53.264;6.592;2023-02-03T08:37:01;13.50;99.90
51996;DHT22;38010;53.264;6.592;2023-02-03T08:39:26;13.50;99.90
51996;DHT22;38010;53.264;6.592;2023-02-03T08:41:52;13.50;99.90
51996;DHT22;38010;53.264;6.592;2023-02-03T08:44:18;13.50;99.90
51996;DHT22;38010;53.264;6.592;2023-02-03T08:46:48;13.50;99.90
51996;DHT22;38010;53.264;6.592;2023-02-03T08:49:14;13.50;99.90
51996;DHT22;38010;53.264;6.592;2023-02-03T08:51:39;13.50;99.90
51996;DHT22;38010;53.264;6.592;2023-02-03T08:54:05;13.50;99.90
51996;DHT22;38010;53.264;6.592;2023-02-03T08:56:31;13.50;99.90
51996;DHT22;38010;53.264;6.592;2023-02-03T08:58:58;13.50;99.90
51996;DHT22;38010;53.264;6.592;2023-02-03T09:01:24;13.50;99.90
51996;DHT22;38010;53.264;6.592;2023-02-03T09:03:50;13.50;99.90
51996;DHT22;38010;53.264;6.592;2023-02-03T09:06:16;13.50;99.90
51996;DHT22;38010;53.264;6.592;2023-02-03T09:08:43;13.50;99.90
51996;DHT22;38010;53.264;6.592;2023-02-03T09:11:10;13.50;99.90
51996;DHT22;38010;53.264;6.592;2023-02-03T09:13:37;13.50;99.90
51996;DHT22;38010;53.264;6.592;2023-02-03T09:16:07;13.50;99.90
51996;DHT22;38010;53.264;6.592;2023-02-03T09:18:33;13.50;99.90
51996;DHT22;38010;53.264;6.592;2023-02-03T09:21:06;13.50;99.90
51996;DHT22;38010;53.264;6.592;2023-02-03T09:23:32;13.50;99.90
51996;DHT22;38010;53.264;6.592;2023-02-03T09:26:07;13.50;99.90
51996;DHT22;38010;53.264;6.592;2023-02-03T09:28:34;13.50;99.90
51996;DHT22;38010;53.264;6.592;2023-02-03T09:31:04;13.50;99.90
51996;DHT22;38010;53.264;6.592;2023-02-03T09:33:30;13.50;99.90
51996;DHT22;38010;53.264;6.592;2023-02-03T09:35:57;13.50;99.90
51996;DHT22;38010;53.264;6.592;2023-02-03T09:38:23;13.50;99.90
51996;DHT22;38010;53.264;6.592;2023-02-03T09:40:56;13.50;99.90
51996;DHT22;38010;53.264;6.592;2023-02-03T09:46:21;13.60;99.90
51996;DHT22;38010;53.264;6.592;2023-02-03T09:48:56;13.60;99.90
51996;DHT22;38010;53.264;6.592;2023-02-03T09:51:29;13.60;99.90
51996;DHT22;38010;53.264;6.592;2023-02-03T09:56:50;13.50;99.90
51996;DHT22;38010;53.264;6.592;2023-02-03T09:59:18;13.50;99.90
51996;DHT22;38010;53.264;6.592;2023-02-03T10:04:38;13.50;99.90
51996;DHT22;38010;53.264;6.592;2023-02-03T10:12:55;13.50;99.90
51996;DHT22;38010;53.264;6.592;2023-02-03T10:15:55;13.50;99.90
51996;DHT22;38010;53.264;6.592;2023-02-03T10:18:30;13.50;99.90
51996;DHT22;38010;53.264;6.592;2023-02-03T10:21:04;13.50;99.90
51996;DHT22;38010;53.264;6.592;2023-02-03T10:23:38;13.50;99.90
51996;DHT22;38010;53.264;6.592;2023-02-03T10:26:08;13.50;99.90
51996;DHT22;38010;53.264;6.592;2023-02-03T10:29:02;13.50;99.90
51996;DHT22;38010;53.264;6.592;2023-02-03T10:31:34;13.50;99.90
51996;DHT22;38010;53.264;6.592;2023-02-03T10:34:09;13.50;99.90
51996;DHT22;38010;53.264;6.592;2023-02-03T10:36:57;13.50;99.90
51996;DHT22;38010;53.264;6.592;2023-02-03T10:41:52;13.50;99.90
51996;DHT22;38010;53.264;6.592;2023-02-03T10:44:18;13.50;99.90
51996;DHT22;38010;53.264;6.592;2023-02-03T10:46:44;13.50;99.90
51996;DHT22;38010;53.264;6.592;2023-02-03T10:49:11;13.50;99.90
51996;DHT22;38010;53.264;6.592;2023-02-03T10:51:47;13.50;99.90
51996;DHT22;38010;53.264;6.592;2023-02-03T10:54:28;13.50;99.90
51996;DHT22;38010;53.264;6.592;2023-02-03T10:57:00;13.50;99.90
51996;DHT22;38010;53.264;6.592;2023-02-03T10:59:32;13.50;99.90
51996;DHT22;38010;53.264;6.592;2023-02-03T11:01:58;13.50;99.90
51996;DHT22;38010;53.264;6.592;2023-02-03T11:04:31;13.50;99.90
51996;DHT22;38010;53.264;6.592;2023-02-03T11:09:37;13.40;99.90
51996;DHT22;38010;53.264;6.592;2023-02-03T11:12:13;13.50;99.90
51996;DHT22;38010;53.264;6.592;2023-02-03T11:14:44;13.50;99.90
51996;DHT22;38010;53.264;6.592;2023-02-03T11:17:19;13.40;99.90
51996;DHT22;38010;53.264;6.592;2023-02-03T11:19:52;13.40;99.90
51996;DHT22;38010;53.264;6.592;2023-02-03T11:24:58;13.40;99.90
51996;DHT22;38010;53.264;6.592;2023-02-03T11:27:24;13.40;99.90
51996;DHT22;38010;53.264;6.592;2023-02-03T11:30:27;13.50;99.90
51996;DHT22;38010;53.264;6.592;2023-02-03T11:32:54;13.30;99.90
51996;DHT22;38010;53.264;6.592;2023-02-03T11:37:57;13.40;99.90
51996;DHT22;38010;53.264;6.592;2023-02-03T11:40:31;13.40;99.90
51996;DHT22;38010;53.264;6.592;2023-02-03T11:43:03;13.40;99.90
51996;DHT22;38010;53.264;6.592;2023-02-03T11:56:19;13.40;99.90
51996;DHT22;38010;53.264;6.592;2023-02-03T12:05:20;13.40;99.90
51996;DHT22;38010;53.264;6.592;2023-02-03T12:13:03;13.40;99.90
51996;DHT22;38010;53.264;6.592;2023-02-03T12:18:46;13.40;99.90
51996;DHT22;38010;53.264;6.592;2023-02-03T12:21:44;13.40;99.90
51996;DHT22;38010;53.264;6.592;2023-02-03T12:24:41;13.40;99.90
51996;DHT22;38010;53.264;6.592;2023-02-03T12:27:24;13.40;99.90
51996;DHT22;38010;53.264;6.592;2023-02-03T12:30:03;13.40;99.90
51996;DHT22;38010;53.264;6.592;2023-02-03T12:32:38;13.40;99.90
51996;DHT22;38010;53.264;6.592;2023-02-03T12:40:13;13.40;99.90
51996;DHT22;38010;53.264;6.592;2023-02-03T12:45:31;13.40;99.90
51996;DHT22;38010;53.264;6.592;2023-02-03T12:48:08;13.40;99.90
51996;DHT22;38010;53.264;6.592;2023-02-03T12:50:43;13.40;99.90
51996;DHT22;38010;53.264;6.592;2023-02-03T12:53:16;13.40;99.90
51996;DHT22;38010;53.264;6.592;2023-02-03T12:55:52;13.40;99.90
51996;DHT22;38010;53.264;6.592;2023-02-03T12:58:22;13.40;99.90
51996;DHT22;38010;53.264;6.592;2023-02-03T13:00:58;13.40;99.90
51996;DHT22;38010;53.264;6.592;2023-02-03T13:14:40;13.40;99.90
51996;DHT22;38010;53.264;6.592;2023-02-03T13:17:19;13.40;99.90
51996;DHT22;38010;53.264;6.592;2023-02-03T13:20:01;13.40;99.90
51996;DHT22;38010;53.264;6.592;2023-02-03T13:22:28;13.40;99.90
51996;DHT22;38010;53.264;6.592;2023-02-03T13:25:07;13.30;99.90
51996;DHT22;38010;53.264;6.592;2023-02-03T13:28:01;13.30;99.90
51996;DHT22;38010;53.264;6.592;2023-02-03T13:30:38;13.30;99.90
51996;DHT22;38010;53.264;6.592;2023-02-03T13:33:29;13.30;99.90
51996;DHT22;38010;53.264;6.592;2023-02-03T13:44:35;13.30;99.90
51996;DHT22;38010;53.264;6.592;2023-02-03T13:47:02;13.30;99.90
51996;DHT22;38010;53.264;6.592;2023-02-03T13:49:34;13.30;99.90
51996;DHT22;38010;53.264;6.592;2023-02-03T13:52:02;13.30;99.90
51996;DHT22;38010;53.264;6.592;2023-02-03T13:54:34;13.30;99.90
51996;DHT22;38010;53.264;6.592;2023-02-03T13:57:36;13.30;99.90
51996;DHT22;38010;53.264;6.592;2023-02-03T14:00:05;13.30;99.90
51996;DHT22;38010;53.264;6.592;2023-02-03T14:02:42;13.30;99.90
51996;DHT22;38010;53.264;6.592;2023-02-03T14:05:41;13.30;99.90
51996;DHT22;38010;53.264;6.592;2023-02-03T14:16:46;13.30;99.90
51996;DHT22;38010;53.264;6.592;2023-02-03T14:21:58;13.40;99.90
51996;DHT22;38010;53.264;6.592;2023-02-03T14:24:35;13.30;99.90
51996;DHT22;38010;53.264;6.592;2023-02-03T14:27:04;13.30;99.90
51996;DHT22;38010;53.264;6.592;2023-02-03T14:29:33;13.40;99.90
51996;DHT22;38010;53.264;6.592;2023-02-03T14:34:43;13.40;99.90
51996;DHT22;38010;53.264;6.592;2023-02-03T14:37:16;13.40;99.90
51996;DHT22;38010;53.264;6.592;2023-02-03T14:40:12;13.40;99.90
51996;DHT22;38010;53.264;6.592;2023-02-03T14:43:02;13.40;99.90
51996;DHT22;38010;53.264;6.592;2023-02-03T14:54:00;13.40;99.90
51996;DHT22;38010;53.264;6.592;2023-02-03T14:59:43;13.40;99.90
51996;DHT22;38010;53.264;6.592;2023-02-03T15:02:19;13.40;99.90
51996;DHT22;38010;53.264;6.592;2023-02-03T15:04:47;13.40;99.90
51996;DHT22;38010;53.264;6.592;2023-02-03T15:07:44;13.40;99.90
51996;DHT22;38010;53.264;6.592;2023-02-03T15:12:44;13.40;99.90
51996;DHT22;38010;53.264;6.592;2023-02-03T15:15:20;13.40;99.90
51996;DHT22;38010;53.264;6.592;2023-02-03T15:17:47;13.40;99.90
51996;DHT22;38010;53.264;6.592;2023-02-03T15:20:52;13.40;99.90
51996;DHT22;38010;53.264;6.592;2023-02-03T15:23:19;13.40;99.90
51996;DHT22;38010;53.264;6.592;2023-02-03T15:25:45;13.40;99.90
51996;DHT22;38010;53.264;6.592;2023-02-03T15:28:19;13.40;99.90
51996;DHT22;38010;53.264;6.592;2023-02-03T15:30:51;13.40;99.90
51996;DHT22;38010;53.264;6.592;2023-02-03T15:33:17;13.50;99.90
51996;DHT22;38010;53.264;6.592;2023-02-03T15:35:49;13.50;99.90
51996;DHT22;38010;53.264;6.592;2023-02-03T15:38:28;13.50;99.90
51996;DHT22;38010;53.264;6.592;2023-02-03T15:40:55;13.60;99.90
51996;DHT22;38010;53.264;6.592;2023-02-03T15:43:38;13.60;99.90
51996;DHT22;38010;53.264;6.592;2023-02-03T15:46:17;13.70;99.90
51996;DHT22;38010;53.264;6.592;2023-02-03T15:49:02;13.70;99.90
51996;DHT22;38010;53.264;6.592;2023-02-03T15:51:32;13.80;99.90
51996;DHT22;38010;53.264;6.592;2023-02-03T15:54:25;13.80;99.90
51996;DHT22;38010;53.264;6.592;2023-02-03T15:57:00;13.90;99.90
51996;DHT22;38010;53.264;6.592;2023-02-03T15:59:33;13.90;99.90
51996;DHT22;38010;53.264;6.592;2023-02-03T16:02:05;13.90;99.90
51996;DHT22;38010;53.264;6.592;2023-02-03T16:04:32;13.90;99.90
51996;DHT22;38010;53.264;6.592;2023-02-03T16:06:58;13.90;99.90
51996;DHT22;38010;53.264;6.592;2023-02-03T16:09:38;13.90;99.90
51996;DHT22;38010;53.264;6.592;2023-02-03T16:12:27;13.90;99.90
51996;DHT22;38010;53.264;6.592;2023-02-03T16:14:55;13.90;99.90
51996;DHT22;38010;53.264;6.592;2023-02-03T16:17:35;13.90;99.90
51996;DHT22;38010;53.264;6.592;2023-02-03T16:22:44;13.90;99.90
51996;DHT22;38010;53.264;6.592;2023-02-03T16:25:18;13.90;99.90
51996;DHT22;38010;53.264;6.592;2023-02-03T16:30:38;13.90;99.90
51996;DHT22;38010;53.264;6.592;2023-02-03T16:33:23;13.90;99.90
51996;DHT22;38010;53.264;6.592;2023-02-03T16:36:12;13.80;99.90
51996;DHT22;38010;53.264;6.592;2023-02-03T16:38:57;13.80;99.90
51996;DHT22;38010;53.264;6.592;2023-02-03T16:41:44;13.80;99.90
51996;DHT22;38010;53.264;6.592;2023-02-03T16:44:28;13.80;99.90
51996;DHT22;38010;53.264;6.592;2023-02-03T16:47:30;13.80;99.90
51996;DHT22;38010;53.264;6.592;2023-02-03T16:50:20;13.70;99.90
51996;DHT22;38010;53.264;6.592;2023-02-03T16:53:14;13.70;99.90
51996;DHT22;38010;53.264;6.592;2023-02-03T16:55:41;13.70;99.90
51996;DHT22;38010;53.264;6.592;2023-02-03T16:58:07;13.70;99.90
51996;DHT22;38010;53.264;6.592;2023-02-03T17:00:35;13.70;99.90
51996;DHT22;38010;53.264;6.592;2023-02-03T17:03:04;13.70;99.90
51996;DHT22;38010;53.264;6.592;2023-02-03T17:05:30;13.70;99.90
51996;DHT22;38010;53.264;6.592;2023-02-03T17:07:55;13.70;99.90
51996;DHT22;38010;53.264;6.592;2023-02-03T17:10:21;13.70;99.90
51996;DHT22;38010;53.264;6.592;2023-02-03T17:12:47;13.60;99.90
51996;DHT22;38010;53.264;6.592;2023-02-03T17:15:15;13.60;99.90
51996;DHT22;38010;53.264;6.592;2023-02-03T17:17:41;13.60;99.90
51996;DHT22;38010;53.264;6.592;2023-02-03T17:20:07;13.60;99.90
51996;DHT22;38010;53.264;6.592;2023-02-03T17:22:33;13.60;99.90
51996;DHT22;38010;53.264;6.592;2023-02-03T17:24:59;13.60;99.90
51996;DHT22;38010;53.264;6.592;2023-02-03T17:27:25;13.60;99.90
51996;DHT22;38010;53.264;6.592;2023-02-03T17:29:51;13.60;99.90
51996;DHT22;38010;53.264;6.592;2023-02-03T17:32:16;13.60;99.90
51996;DHT22;38010;53.264;6.592;2023-02-03T17:34:42;13.60;99.90
51996;DHT22;38010;53.264;6.592;2023-02-03T17:37:08;13.60;99.90
51996;DHT22;38010;53.264;6.592;2023-02-03T17:39:34;13.60;99.90
51996;DHT22;38010;53.264;6.592;2023-02-03T17:42:00;13.60;99.90
51996;DHT22;38010;53.264;6.592;2023-02-03T17:44:25;13.60;99.90
51996;DHT22;38010;53.264;6.592;2023-02-03T17:46:51;13.60;99.90
51996;DHT22;38010;53.264;6.592;2023-02-03T17:49:17;13.60;99.90
51996;DHT22;38010;53.264;6.592;2023-02-03T17:51:43;13.60;99.90
51996;DHT22;38010;53.264;6.592;2023-02-03T17:54:09;13.60;99.90
51996;DHT22;38010;53.264;6.592;2023-02-03T17:56:35;13.60;99.90
51996;DHT22;38010;53.264;6.592;2023-02-03T17:59:02;13.60;99.90
51996;DHT22;38010;53.264;6.592;2023-02-03T18:01:29;13.60;99.90